createdAt,value
2022-12-14T00:02:31.339Z,99808.19
2022-12-14T00:07:34.356Z,99804.66
2022-12-14T00:12:37.111Z,99803.41
2022-12-14T00:17:39.851Z,99805.64
2022-12-14T00:22:42.644Z,99801.14
2022-12-14T00:27:46.541Z,99798.70
2022-12-14T00:32:49.293Z,99799.16
2022-12-14T00:37:52.067Z,99804.45
2022-12-14T00:42:54.772Z,99801.34
2022-12-14T00:47:57.491Z,99800.86
2022-12-14T00:53:00.194Z,99799.41
2022-12-14T00:58:02.974Z,99801.31
2022-12-14T01:03:06.651Z,99809.89
2022-12-14T01:08:09.374Z,99809.41
2022-12-14T01:13:12.110Z,99806.73
2022-12-14T01:18:14.880Z,99811.47
2022-12-14T01:23:18.064Z,99811.65
2022-12-14T01:28:20.831Z,99811.45
2022-12-14T01:33:23.533Z,99813.53
2022-12-14T01:38:26.276Z,99811.80
2022-12-14T01:44:00.039Z,99809.31
2022-12-14T01:49:14.624Z,99807.65
2022-12-14T01:54:17.367Z,99809.91
2022-12-14T01:59:27.139Z,99799.52
2022-12-14T02:04:31.118Z,99801.42
2022-12-14T02:09:39.780Z,99799.70
2022-12-14T02:14:43.302Z,99797.86
2022-12-14T02:19:47.132Z,99797.61
2022-12-14T02:25:02.052Z,99799.42
2022-12-14T02:30:22.820Z,99799.55
2022-12-14T02:35:48.682Z,99796.64
2022-12-14T02:40:58.003Z,99796.27
2022-12-14T02:46:18.586Z,99795.39
2022-12-14T02:51:47.602Z,99794.77
2022-12-14T02:56:56.686Z,99795.67
2022-12-14T03:02:02.219Z,99802.52
2022-12-14T03:07:42.729Z,99805.60
2022-12-14T03:13:01.273Z,99808.38
2022-12-14T03:18:07.176Z,99806.98
2022-12-14T03:23:18.206Z,99806.98
2022-12-14T03:28:28.853Z,99802.02
2022-12-14T03:33:34.214Z,99798.40
2022-12-14T03:38:47.066Z,99793.05
2022-12-14T03:44:18.813Z,99793.33
2022-12-14T03:49:29.853Z,99797.90
2022-12-14T03:54:38.560Z,99793.41
2022-12-14T03:59:59.823Z,99789.71
2022-12-14T04:05:09.603Z,99791.06
2022-12-14T04:10:36.714Z,99785.48
2022-12-14T04:16:01.135Z,99776.41
2022-12-14T04:21:15.546Z,99780.21
2022-12-14T04:26:25.708Z,99784.05
2022-12-14T04:31:32.946Z,99789.36
2022-12-14T04:36:57.633Z,99788.48
2022-12-14T04:42:02.860Z,99789.27
2022-12-14T04:47:09.978Z,99789.64
2022-12-14T04:52:36.231Z,99795.70
2022-12-14T04:57:46.363Z,99791.52
2022-12-14T05:03:13.287Z,99790.23
2022-12-14T05:08:37.245Z,99790.70
2022-12-14T05:13:45.366Z,99785.20
2022-12-14T05:18:51.990Z,99778.77
2022-12-14T05:23:54.727Z,99777.25
2022-12-14T05:28:57.546Z,99769.83
2022-12-14T05:34:00.270Z,99769.27
2022-12-14T05:39:02.966Z,99764.86
2022-12-14T05:44:05.769Z,99770.42
2022-12-14T05:49:08.543Z,99772.84
2022-12-14T05:54:11.357Z,99780.54
2022-12-14T05:59:15.948Z,99785.73
2022-12-14T06:04:19.650Z,99787.31
2022-12-14T06:09:23.245Z,99791.29
2022-12-14T06:14:26.096Z,99796.70
2022-12-14T06:19:28.789Z,99796.73
2022-12-14T06:24:31.571Z,99785.52
2022-12-14T06:29:34.491Z,99782.70
2022-12-14T06:34:40.650Z,99786.55
2022-12-14T06:39:45.701Z,99786.50
2022-12-14T06:44:55.528Z,99787.20
2022-12-14T06:49:58.547Z,99786.04
2022-12-14T06:55:01.450Z,99784.97
2022-12-14T07:00:04.266Z,99783.05
2022-12-14T07:05:07.450Z,99788.35
2022-12-14T07:10:10.768Z,99792.70
2022-12-14T07:15:13.810Z,99800.01
2022-12-14T07:20:16.711Z,99803.93
2022-12-14T07:25:19.680Z,99804.44
2022-12-14T07:30:22.587Z,99804.80
2022-12-14T07:35:25.872Z,99798.52
2022-12-14T07:40:28.699Z,99798.89
2022-12-14T07:45:31.405Z,99805.56
2022-12-14T07:50:34.224Z,99804.58
2022-12-14T07:55:36.812Z,99805.44
2022-12-14T08:00:40.904Z,99806.34
2022-12-14T08:05:44.140Z,99810.09
2022-12-14T08:10:48.646Z,99814.56
2022-12-14T08:15:51.483Z,99820.02
2022-12-14T08:20:54.842Z,99820.39
2022-12-14T08:25:59.474Z,99812.77
2022-12-14T08:31:08.365Z,99811.56
2022-12-14T08:36:20.258Z,99811.04
2022-12-14T08:41:24.653Z,99806.81
2022-12-14T08:46:29.637Z,99808.16
2022-12-14T08:51:32.462Z,99807.73
2022-12-14T08:56:35.276Z,99805.06
2022-12-14T09:01:38.403Z,99806.94
2022-12-14T09:06:41.203Z,99810.20
2022-12-14T09:11:45.544Z,99806.77
2022-12-14T09:16:48.437Z,99804.27
2022-12-14T09:21:51.389Z,99805.10
2022-12-14T09:26:54.895Z,99803.38
2022-12-14T09:31:57.926Z,99808.56
2022-12-14T09:37:04.692Z,99812.80
2022-12-14T09:42:26.486Z,99819.31
2022-12-14T09:47:41.947Z,99825.77
2022-12-14T09:53:02.943Z,99825.64
2022-12-14T09:58:18.585Z,99814.74
2022-12-14T10:03:42.860Z,99814.05
2022-12-14T10:08:55.848Z,99803.83
2022-12-14T10:14:39.577Z,99803.45
2022-12-14T10:19:55.177Z,99798.08
2022-12-14T10:25:14.774Z,99784.46
2022-12-14T10:30:21.071Z,99779.79
2022-12-14T10:35:35.973Z,99782.33
2022-12-14T10:40:44.839Z,99771.09
2022-12-14T10:51:11.272Z,99760.76
2022-12-14T10:56:26.083Z,99757.20
2022-12-14T11:01:29.186Z,99749.48
2022-12-14T11:06:33.701Z,99740.19
2022-12-14T11:11:36.512Z,99732.06
2022-12-14T11:16:45.022Z,99719.02
2022-12-14T11:21:50.491Z,99717.50
2022-12-14T11:27:00.155Z,99707.63
2022-12-14T11:32:04.765Z,99704.68
2022-12-14T11:37:27.575Z,99702.48
2022-12-14T11:42:31.201Z,99701.38
2022-12-14T11:47:40.220Z,99698.70
2022-12-14T11:52:44.023Z,99696.12
2022-12-14T11:57:53.938Z,99690.26
2022-12-14T12:03:04.004Z,99677.28
2022-12-14T12:08:22.170Z,99670.44
2022-12-14T12:13:35.224Z,99661.43
2022-12-14T12:19:12.176Z,99656.23
2022-12-14T12:24:38.746Z,99652.42
2022-12-14T12:30:29.803Z,99650.08
2022-12-14T12:35:46.427Z,99650.81
2022-12-14T12:41:14.612Z,99651.20
2022-12-14T12:46:25.075Z,99648.35
2022-12-14T12:51:49.555Z,99648.58
2022-12-14T12:56:59.339Z,99645.27
2022-12-14T13:02:22.897Z,99637.99
2022-12-14T13:07:31.989Z,99639.17
2022-12-14T13:12:51.968Z,99637.34
2022-12-14T13:18:48.693Z,99646.17
2022-12-14T13:23:45.778Z,99648.72
2022-12-14T13:28:59.606Z,99646.02
2022-12-14T13:34:37.543Z,99640.77
2022-12-14T13:39:55.741Z,99639.11
2022-12-14T13:45:04.415Z,99629.98
2022-12-14T13:50:42.423Z,99625.35
2022-12-14T13:55:52.292Z,99626.70
2022-12-14T14:00:59.363Z,99624.55
2022-12-14T14:06:11.388Z,99616.30
2022-12-14T14:11:39.357Z,99614.88
2022-12-14T14:16:51.172Z,99610.89
2022-12-14T14:22:25.802Z,99609.48
2022-12-14T14:27:36.565Z,99599.91
2022-12-14T14:32:43.057Z,99590.35
2022-12-14T14:37:55.251Z,99588.05
2022-12-14T14:43:19.981Z,99586.97
2022-12-14T14:48:25.830Z,99587.66
2022-12-14T14:53:35.857Z,99580.23
2022-12-14T14:58:40.952Z,99574.02
2022-12-14T15:04:02.143Z,99570.65
2022-12-14T15:09:33.808Z,99566.41
2022-12-14T15:14:43.269Z,99565.23
2022-12-14T15:19:52.124Z,99563.85
2022-12-14T15:25:03.478Z,99558.86
2022-12-14T15:30:10.609Z,99557.58
2022-12-14T15:35:23.473Z,99561.08
2022-12-14T15:40:28.478Z,99558.87
2022-12-14T15:45:35.092Z,99557.59
2022-12-14T15:50:42.970Z,99548.15
2022-12-14T15:55:56.391Z,99543.60
2022-12-14T16:01:17.760Z,99536.53
2022-12-14T16:06:31.766Z,99535.29
2022-12-14T16:12:01.595Z,99527.84
2022-12-14T16:17:12.946Z,99517.63
2022-12-14T16:22:22.896Z,99515.13
2022-12-14T16:27:28.120Z,99516.88
2022-12-14T16:32:31.530Z,99505.09
2022-12-14T16:37:34.914Z,99500.31
2022-12-14T16:42:37.639Z,99495.92
2022-12-14T16:48:09.983Z,99491.56
2022-12-14T16:53:23.173Z,99482.43
2022-12-14T16:58:26.286Z,99478.95
2022-12-14T17:03:32.816Z,99474.77
2022-12-14T17:08:36.219Z,99469.84
2022-12-14T17:13:39.036Z,99464.69
2022-12-14T17:18:41.772Z,99458.63
2022-12-14T17:23:45.584Z,99459.44
2022-12-14T17:28:48.842Z,99456.94
2022-12-14T17:33:52.988Z,99450.69
2022-12-14T17:38:55.705Z,99449.23
2022-12-14T17:43:58.571Z,99441.20
2022-12-14T17:49:06.152Z,99434.48
2022-12-14T17:54:16.176Z,99434.59
2022-12-14T17:59:19.080Z,99432.27
2022-12-14T18:04:21.855Z,99417.52
2022-12-14T18:09:24.506Z,99409.96
2022-12-14T18:14:27.269Z,99412.42
2022-12-14T18:19:29.960Z,99416.43
2022-12-14T18:24:33.435Z,99414.91
2022-12-14T18:29:36.219Z,99407.69
2022-12-14T18:34:38.855Z,99391.59
2022-12-14T18:39:41.611Z,99394.55
2022-12-14T18:44:44.285Z,99393.23
2022-12-14T18:49:47.010Z,99384.93
2022-12-14T18:54:51.915Z,99379.03
2022-12-14T18:59:55.134Z,99375.20
2022-12-14T19:04:57.993Z,99369.68
2022-12-14T19:10:00.891Z,99369.48
2022-12-14T19:15:04.078Z,99370.01
2022-12-14T19:20:07.465Z,99373.55
2022-12-14T19:25:11.429Z,99361.54
2022-12-14T19:30:22.633Z,99361.21
2022-12-14T19:35:26.171Z,99362.63
2022-12-14T19:40:28.990Z,99360.64
2022-12-14T19:45:31.743Z,99361.67
2022-12-14T19:50:34.457Z,99358.98
2022-12-14T19:55:37.254Z,99357.28
2022-12-14T20:00:40.008Z,99351.84
2022-12-14T20:05:48.819Z,99346.12
2022-12-14T20:10:55.011Z,99342.67
2022-12-14T20:15:58.676Z,99339.59
2022-12-14T20:21:07.003Z,99337.38
2022-12-14T20:26:17.529Z,99334.48
2022-12-14T20:31:22.408Z,99342.21
2022-12-14T20:36:25.321Z,99351.59
2022-12-14T20:41:29.317Z,99363.13
2022-12-14T20:46:37.350Z,99365.39
2022-12-14T20:51:41.367Z,99359.34
2022-12-14T20:56:45.065Z,99348.21
2022-12-14T21:01:56.183Z,99344.27
2022-12-14T21:06:59.643Z,99344.08
2022-12-14T21:12:20.768Z,99354.23
2022-12-14T21:17:30.183Z,99349.66
2022-12-14T21:22:35.390Z,99347.88
2022-12-14T21:27:39.415Z,99337.95
2022-12-14T21:32:43.051Z,99331.47
2022-12-14T21:37:45.886Z,99330.97
2022-12-14T21:42:49.687Z,99320.55
2022-12-14T21:47:52.418Z,99318.83
2022-12-14T21:52:55.038Z,99310.25
2022-12-14T21:58:15.904Z,99303.16
2022-12-14T22:03:18.721Z,99304.80
2022-12-14T22:08:21.510Z,99307.19
2022-12-14T22:13:24.153Z,99304.47
2022-12-14T22:18:26.879Z,99303.92
2022-12-14T22:23:34.027Z,99295.27
2022-12-14T22:28:37.517Z,99292.95
2022-12-14T22:33:40.312Z,99285.71
2022-12-14T22:38:43.644Z,99277.80
2022-12-14T22:43:53.058Z,99269.61
2022-12-14T22:48:55.823Z,99261.34
2022-12-14T22:53:58.629Z,99260.89
2022-12-14T22:59:17.472Z,99259.38
2022-12-14T23:04:22.512Z,99251.46
2022-12-14T23:09:44.194Z,99238.83
2022-12-14T23:15:05.608Z,99234.83
2022-12-14T23:20:27.720Z,99241.43
2022-12-14T23:25:52.724Z,99241.71
2022-12-14T23:31:17.631Z,99236.52
2022-12-14T23:36:42.383Z,99235.59
2022-12-14T23:42:04.190Z,99235.29
2022-12-14T23:47:25.922Z,99236.51
2022-12-14T23:52:47.396Z,99230.17
2022-12-14T23:58:08.596Z,99233.84
